Insula Oya 2 — FUKI — position and weather

sailwx.info

Track history (hours):
 
Tides and Currents Weather Stations Pressure Air Temp Water Temp Dewpoint Dewpoint Depression Visibility Wind Speed Wind Dir Waves Ship Positions

Insula Oya 2

Last reported at 2017-Feb-25 04:33 UTC. Time now 2017-Feb-25 09:13 UTC.
Position N 46°49' W 002°16'.

Length 50 m; draft 2.4 m.

Type: Passenger vessel. MMSI: 227004900.

Date/timePositionNaut miles runAvg speedWind from/ knotsBaromVisibWave heightAir tempDewpointWater temp
2017-Feb-25 04:33N 46°49' W 002°16'7 6.9
2017-Feb-25 03:33N 46°54' W 002°08'0 0.0
2017-Feb-25 02:26N 46°54' W 002°08'0 0.0
2017-Feb-25 01:29N 46°54' W 002°08'0 0.0
2017-Feb-25 00:29N 46°54' W 002°08'0 0.0
2017-Feb-24 23:29N 46°54' W 002°08'0 0.0
2017-Feb-24 22:32N 46°54' W 002°08'0 0.0
2017-Feb-24 21:20N 46°54' W 002°08'0 0.0
2017-Feb-24 20:23N 46°54' W 002°08'0 0.0
2017-Feb-24 19:32N 46°54' W 002°08'0 0.0
2017-Feb-24 18:32N 46°54' W 002°08'0 0.0
2017-Feb-24 17:23N 46°54' W 002°08'0 0.0
2017-Feb-24 16:20N 46°54' W 002°08'0 0.0
2017-Feb-24 15:12N 46°54' W 002°08'11 1.0
2017-Feb-24 04:21N 46°45' W 002°19'1113.3
2017-Feb-24 03:33N 46°54' W 002°09'1 0.7
2017-Feb-24 02:33N 46°54' W 002°08'0 0.0
2017-Feb-24 01:33N 46°54' W 002°08'0 0.0
2017-Feb-24 00:33N 46°54' W 002°08'0 0.0
2017-Feb-23 23:21N 46°54' W 002°08'0 0.0
2017-Feb-23 22:33N 46°54' W 002°08'0 0.0
2017-Feb-23 21:18N 46°54' W 002°08'0 0.0
2017-Feb-23 20:30N 46°54' W 002°08'0 0.0
2017-Feb-23 19:09N 46°54' W 002°08'3 0.5
2017-Feb-23 12:08N 46°52' W 002°13'3 5.5
2017-Feb-23 11:32N 46°54' W 002°08'0 0.0
2017-Feb-23 10:31N 46°54' W 002°08'0 0.0
2017-Feb-23 08:22N 46°54' W 002°08'0 0.0
2017-Feb-23 07:31N 46°54' W 002°08'0 0.0
2017-Feb-23 06:28N 46°54' W 002°08'0 0.0
2017-Feb-23 05:28N 46°54' W 002°08'0 0.0
2017-Feb-23 04:19N 46°54' W 002°08'0 0.0
2017-Feb-23 03:28N 46°54' W 002°08'0 0.0
2017-Feb-23 02:34N 46°54' W 002°08'0 0.0
2017-Feb-23 01:31N 46°54' W 002°08'0 0.0
2017-Feb-23 00:28N 46°54' W 002°08'0 0.0
2017-Feb-22 23:34N 46°54' W 002°08'0 0.0
2017-Feb-22 22:34N 46°54' W 002°08'0 0.0
2017-Feb-22 21:34N 46°54' W 002°08'0 0.0
2017-Feb-22 20:34N 46°54' W 002°08'0 0.0
2017-Feb-22 19:34N 46°54' W 002°08'0 0.0
2017-Feb-22 18:25N 46°54' W 002°08'0 0.0
2017-Feb-22 17:19N 46°54' W 002°08'0 0.0
2017-Feb-22 16:31N 46°54' W 002°08'0 0.0
2017-Feb-22 15:32N 46°54' W 002°08'1110.9
2017-Feb-22 14:31N 46°45' W 002°19'6 1.9
2017-Feb-22 11:33N 46°50' W 002°15'6 5.5
2017-Feb-22 10:33N 46°54' W 002°08'0 0.0
2017-Feb-22 09:22N 46°54' W 002°08'0 0.0
2017-Feb-22 08:28N 46°54' W 002°08'0 0.0
2017-Feb-22 07:31N 46°54' W 002°08'0 0.0
2017-Feb-22 06:31N 46°54' W 002°08'0 0.0
2017-Feb-22 05:34N 46°54' W 002°08'0 0.0
2017-Feb-22 04:31N 46°54' W 002°08'0 0.0
2017-Feb-22 03:34N 46°54' W 002°08'0 0.0
2017-Feb-22 02:34N 46°54' W 002°08'0 0.0
2017-Feb-22 01:31N 46°54' W 002°08'0 0.0
2017-Feb-22 00:31N 46°54' W 002°08'0 0.0
2017-Feb-21 23:34N 46°54' W 002°08'0 0.0
2017-Feb-21 22:34N 46°54' W 002°08'0 0.0
2017-Feb-21 21:28N 46°54' W 002°08'0 0.0
2017-Feb-21 20:34N 46°54' W 002°08'0 0.0
2017-Feb-21 19:34N 46°54' W 002°08'0 0.0
2017-Feb-21 18:34N 46°54' W 002°08'0 0.0
2017-Feb-21 17:31N 46°54' W 002°08'0 0.0
2017-Feb-21 16:33N 46°54' W 002°08'0 0.0
2017-Feb-21 15:30N 46°54' W 002°08'1 1.4
2017-Feb-21 14:33N 46°54' W 002°10'12 6.0
2017-Feb-21 12:29N 46°44' W 002°21'12 6.2
2017-Feb-21 10:33N 46°53' W 002°11'2 1.9
2017-Feb-21 09:33N 46°54' W 002°08'0 0.0
2017-Feb-21 08:32N 46°54' W 002°08'0 0.0
2017-Feb-21 07:32N 46°54' W 002°08'0 0.0
2017-Feb-21 06:32N 46°54' W 002°08'0 0.0
2017-Feb-21 05:32N 46°54' W 002°08'0 0.0
2017-Feb-21 04:32N 46°54' W 002°08'0 0.0
2017-Feb-21 03:26N 46°54' W 002°08'0 0.0
2017-Feb-21 02:32N 46°54' W 002°08'0 0.0
2017-Feb-21 01:32N 46°54' W 002°08'0 0.0
2017-Feb-21 00:32N 46°54' W 002°08'0 0.0
2017-Feb-20 23:32N 46°54' W 002°08'0 0.0
2017-Feb-20 22:26N 46°54' W 002°08'0 0.0
2017-Feb-20 21:29N 46°54' W 002°08'0 0.0
2017-Feb-20 20:29N 46°54' W 002°08'0 0.0
2017-Feb-20 19:26N 46°54' W 002°08'0 0.0
2017-Feb-20 18:32N 46°54' W 002°08'0 0.0
2017-Feb-20 17:20N 46°54' W 002°08'0 0.0
2017-Feb-20 16:32N 46°54' W 002°08'0 0.0
2017-Feb-20 15:32N 46°54' W 002°08'0 0.0
2017-Feb-20 14:32N 46°54' W 002°08'0 0.0
2017-Feb-20 13:29N 46°54' W 002°08'0 0.0
2017-Feb-20 12:29N 46°54' W 002°08'13 0.5
2017-Feb-19 10:05N 46°44' W 002°21'0 0.0
2017-Feb-19 09:32N 46°44' W 002°21'0 0.0
2017-Feb-19 07:22N 46°44' W 002°21'0 0.1
2017-Feb-19 05:20N 46°43' W 002°21'0 0.2
2017-Feb-19 04:32N 46°44' W 002°21'0 0.0
2017-Feb-18 13:13N 46°44' W 002°21'0 0.0
2017-Feb-18 12:33N 46°44' W 002°21'0 0.0
2017-Feb-18 11:17N 46°44' W 002°21'0 0.0
2017-Feb-18 10:27N 46°44' W 002°21'0 0.0
2017-Feb-18 09:23N 46°44' W 002°21'0 0.0
2017-Feb-18 08:33N 46°44' W 002°21'1 0.5
2017-Feb-18 07:19N 46°44' W 002°20'1013.7
2017-Feb-18 06:33N 46°53' W 002°12'3 2.6
2017-Feb-18 05:33N 46°54' W 002°08'0 0.0
2017-Feb-18 04:33N 46°54' W 002°08'0 0.0
2017-Feb-18 03:33N 46°54' W 002°08'0 0.0
2017-Feb-18 02:33N 46°54' W 002°08'0 0.0
2017-Feb-18 01:33N 46°54' W 002°08'0 0.0
2017-Feb-18 00:33N 46°54' W 002°08'0 0.0
2017-Feb-17 23:33N 46°54' W 002°08'0 0.0
2017-Feb-17 22:33N 46°54' W 002°08'0 0.0
2017-Feb-17 21:33N 46°54' W 002°08'0 0.0
2017-Feb-17 20:33N 46°54' W 002°08'0 0.0
2017-Feb-17 19:33N 46°54' W 002°08'0 0.0
2017-Feb-17 18:33N 46°54' W 002°08'13 5.9
2017-Feb-17 16:20N 46°44' W 002°21'0 0.0
2017-Feb-17 14:03N 46°44' W 002°21'0 0.0
2017-Feb-17 09:10N 46°44' W 002°21'0 0.0
2017-Feb-17 08:19N 46°44' W 002°21'11 6.3
2017-Feb-17 06:33N 46°53' W 002°12'3 2.6
2017-Feb-17 05:33N 46°54' W 002°08'0 0.0
2017-Feb-17 04:33N 46°54' W 002°08'0 0.0
2017-Feb-17 03:33N 46°54' W 002°08'0 0.0
2017-Feb-17 02:33N 46°54' W 002°08'0 0.0
2017-Feb-17 01:32N 46°54' W 002°08'0 0.0
2017-Feb-17 00:33N 46°54' W 002°08'0 0.0
2017-Feb-16 23:33N 46°54' W 002°08'0 0.0
2017-Feb-16 22:33N 46°54' W 002°08'0 0.0
2017-Feb-16 21:33N 46°54' W 002°08'0 0.0
2017-Feb-16 20:33N 46°54' W 002°08'0 0.0
2017-Feb-16 19:33N 46°54' W 002°08'0 0.0
2017-Feb-16 18:33N 46°54' W 002°08'6 6.2
2017-Feb-16 17:33N 46°49' W 002°15'6 0.6
2017-Feb-16 07:15N 46°45' W 002°20'1013.8
2017-Feb-16 06:33N 46°53' W 002°12'3 2.6
2017-Feb-16 05:33N 46°54' W 002°08'0 0.0
2017-Feb-16 04:33N 46°54' W 002°08'0 0.0
2017-Feb-16 03:33N 46°54' W 002°08'0 0.0
2017-Feb-16 02:33N 46°54' W 002°08'0 0.0
2017-Feb-16 01:33N 46°54' W 002°08'0 0.0
2017-Feb-16 00:33N 46°54' W 002°08'0 0.0
2017-Feb-15 23:33N 46°54' W 002°08'0 0.0
2017-Feb-15 22:33N 46°54' W 002°08'0 0.0
2017-Feb-15 21:33N 46°54' W 002°08'0 0.0
2017-Feb-15 20:33N 46°54' W 002°08'0 0.0
2017-Feb-15 19:33N 46°54' W 002°08'0 0.0
2017-Feb-15 18:33N 46°54' W 002°08'0 0.0
2017-Feb-15 17:33N 46°54' W 002°08'6 6.5
2017-Feb-15 16:33N 46°49' W 002°15'4 0.4
2017-Feb-15 06:33N 46°53' W 002°12'3 2.6
2017-Feb-15 05:33N 46°54' W 002°08'  
Track history (hours):
 
Tides and Currents Weather Stations Pressure Air Temp Water Temp Dewpoint Dewpoint Depression Visibility Wind Speed Wind Dir Waves Ship Positions

Insula Oya 2

Last reported at 2017-Feb-25 04:33 UTC. Time now 2017-Feb-25 09:13 UTC.
Position N 46°49' W 002°16'.

Length 50 m; draft 2.4 m.

Type: Passenger vessel. MMSI: 227004900.

Date/timePositionNaut miles runAvg speedWind from/ knotsBaromVisibWave heightAir tempDewpointWater temp
2017-Feb-25 04:33N 46°49' W 002°16'7 6.9
2017-Feb-25 03:33N 46°54' W 002°08'0 0.0
2017-Feb-25 02:26N 46°54' W 002°08'0 0.0
2017-Feb-25 01:29N 46°54' W 002°08'0 0.0
2017-Feb-25 00:29N 46°54' W 002°08'0 0.0
2017-Feb-24 23:29N 46°54' W 002°08'0 0.0
2017-Feb-24 22:32N 46°54' W 002°08'0 0.0
2017-Feb-24 21:20N 46°54' W 002°08'0 0.0
2017-Feb-24 20:23N 46°54' W 002°08'0 0.0
2017-Feb-24 19:32N 46°54' W 002°08'0 0.0
2017-Feb-24 18:32N 46°54' W 002°08'0 0.0
2017-Feb-24 17:23N 46°54' W 002°08'0 0.0
2017-Feb-24 16:20N 46°54' W 002°08'0 0.0
2017-Feb-24 15:12N 46°54' W 002°08'11 1.0
2017-Feb-24 04:21N 46°45' W 002°19'1113.3
2017-Feb-24 03:33N 46°54' W 002°09'1 0.7
2017-Feb-24 02:33N 46°54' W 002°08'0 0.0
2017-Feb-24 01:33N 46°54' W 002°08'0 0.0
2017-Feb-24 00:33N 46°54' W 002°08'0 0.0
2017-Feb-23 23:21N 46°54' W 002°08'0 0.0
2017-Feb-23 22:33N 46°54' W 002°08'0 0.0
2017-Feb-23 21:18N 46°54' W 002°08'0 0.0
2017-Feb-23 20:30N 46°54' W 002°08'0 0.0
2017-Feb-23 19:09N 46°54' W 002°08'3 0.5
2017-Feb-23 12:08N 46°52' W 002°13'3 5.5
2017-Feb-23 11:32N 46°54' W 002°08'0 0.0
2017-Feb-23 10:31N 46°54' W 002°08'0 0.0
2017-Feb-23 08:22N 46°54' W 002°08'0 0.0
2017-Feb-23 07:31N 46°54' W 002°08'0 0.0
2017-Feb-23 06:28N 46°54' W 002°08'0 0.0
2017-Feb-23 05:28N 46°54' W 002°08'0 0.0
2017-Feb-23 04:19N 46°54' W 002°08'0 0.0
2017-Feb-23 03:28N 46°54' W 002°08'0 0.0
2017-Feb-23 02:34N 46°54' W 002°08'0 0.0
2017-Feb-23 01:31N 46°54' W 002°08'0 0.0
2017-Feb-23 00:28N 46°54' W 002°08'0 0.0
2017-Feb-22 23:34N 46°54' W 002°08'0 0.0
2017-Feb-22 22:34N 46°54' W 002°08'0 0.0
2017-Feb-22 21:34N 46°54' W 002°08'0 0.0
2017-Feb-22 20:34N 46°54' W 002°08'0 0.0
2017-Feb-22 19:34N 46°54' W 002°08'0 0.0
2017-Feb-22 18:25N 46°54' W 002°08'0 0.0
2017-Feb-22 17:19N 46°54' W 002°08'0 0.0
2017-Feb-22 16:31N 46°54' W 002°08'0 0.0
2017-Feb-22 15:32N 46°54' W 002°08'1110.9
2017-Feb-22 14:31N 46°45' W 002°19'6 1.9
2017-Feb-22 11:33N 46°50' W 002°15'6 5.5
2017-Feb-22 10:33N 46°54' W 002°08'0 0.0
2017-Feb-22 09:22N 46°54' W 002°08'0 0.0
2017-Feb-22 08:28N 46°54' W 002°08'0 0.0
2017-Feb-22 07:31N 46°54' W 002°08'0 0.0
2017-Feb-22 06:31N 46°54' W 002°08'0 0.0
2017-Feb-22 05:34N 46°54' W 002°08'0 0.0
2017-Feb-22 04:31N 46°54' W 002°08'0 0.0
2017-Feb-22 03:34N 46°54' W 002°08'0 0.0
2017-Feb-22 02:34N 46°54' W 002°08'0 0.0
2017-Feb-22 01:31N 46°54' W 002°08'0 0.0
2017-Feb-22 00:31N 46°54' W 002°08'0 0.0
2017-Feb-21 23:34N 46°54' W 002°08'0 0.0
2017-Feb-21 22:34N 46°54' W 002°08'0 0.0
2017-Feb-21 21:28N 46°54' W 002°08'0 0.0
2017-Feb-21 20:34N 46°54' W 002°08'0 0.0
2017-Feb-21 19:34N 46°54' W 002°08'0 0.0
2017-Feb-21 18:34N 46°54' W 002°08'0 0.0
2017-Feb-21 17:31N 46°54' W 002°08'0 0.0
2017-Feb-21 16:33N 46°54' W 002°08'0 0.0
2017-Feb-21 15:30N 46°54' W 002°08'1 1.4
2017-Feb-21 14:33N 46°54' W 002°10'12 6.0
2017-Feb-21 12:29N 46°44' W 002°21'12 6.2
2017-Feb-21 10:33N 46°53' W 002°11'2 1.9
2017-Feb-21 09:33N 46°54' W 002°08'0 0.0
2017-Feb-21 08:32N 46°54' W 002°08'0 0.0
2017-Feb-21 07:32N 46°54' W 002°08'0 0.0
2017-Feb-21 06:32N 46°54' W 002°08'0 0.0
2017-Feb-21 05:32N 46°54' W 002°08'0 0.0
2017-Feb-21 04:32N 46°54' W 002°08'0 0.0
2017-Feb-21 03:26N 46°54' W 002°08'0 0.0
2017-Feb-21 02:32N 46°54' W 002°08'0 0.0
2017-Feb-21 01:32N 46°54' W 002°08'0 0.0
2017-Feb-21 00:32N 46°54' W 002°08'0 0.0
2017-Feb-20 23:32N 46°54' W 002°08'0 0.0
2017-Feb-20 22:26N 46°54' W 002°08'0 0.0
2017-Feb-20 21:29N 46°54' W 002°08'0 0.0
2017-Feb-20 20:29N 46°54' W 002°08'0 0.0
2017-Feb-20 19:26N 46°54' W 002°08'0 0.0
2017-Feb-20 18:32N 46°54' W 002°08'0 0.0
2017-Feb-20 17:20N 46°54' W 002°08'0 0.0
2017-Feb-20 16:32N 46°54' W 002°08'0 0.0
2017-Feb-20 15:32N 46°54' W 002°08'0 0.0
2017-Feb-20 14:32N 46°54' W 002°08'0 0.0
2017-Feb-20 13:29N 46°54' W 002°08'0 0.0
2017-Feb-20 12:29N 46°54' W 002°08'13 0.5
2017-Feb-19 10:05N 46°44' W 002°21'0 0.0
2017-Feb-19 09:32N 46°44' W 002°21'0 0.0
2017-Feb-19 07:22N 46°44' W 002°21'0 0.1
2017-Feb-19 05:20N 46°43' W 002°21'0 0.2
2017-Feb-19 04:32N 46°44' W 002°21'0 0.0
2017-Feb-18 13:13N 46°44' W 002°21'0 0.0
2017-Feb-18 12:33N 46°44' W 002°21'0 0.0
2017-Feb-18 11:17N 46°44' W 002°21'0 0.0
2017-Feb-18 10:27N 46°44' W 002°21'0 0.0
2017-Feb-18 09:23N 46°44' W 002°21'0 0.0
2017-Feb-18 08:33N 46°44' W 002°21'1 0.5
2017-Feb-18 07:19N 46°44' W 002°20'1013.7
2017-Feb-18 06:33N 46°53' W 002°12'3 2.6
2017-Feb-18 05:33N 46°54' W 002°08'0 0.0
2017-Feb-18 04:33N 46°54' W 002°08'0 0.0
2017-Feb-18 03:33N 46°54' W 002°08'0 0.0
2017-Feb-18 02:33N 46°54' W 002°08'0 0.0
2017-Feb-18 01:33N 46°54' W 002°08'0 0.0
2017-Feb-18 00:33N 46°54' W 002°08'0 0.0
2017-Feb-17 23:33N 46°54' W 002°08'0 0.0
2017-Feb-17 22:33N 46°54' W 002°08'0 0.0
2017-Feb-17 21:33N 46°54' W 002°08'0 0.0
2017-Feb-17 20:33N 46°54' W 002°08'0 0.0
2017-Feb-17 19:33N 46°54' W 002°08'0 0.0
2017-Feb-17 18:33N 46°54' W 002°08'13 5.9
2017-Feb-17 16:20N 46°44' W 002°21'0 0.0
2017-Feb-17 14:03N 46°44' W 002°21'0 0.0
2017-Feb-17 09:10N 46°44' W 002°21'0 0.0
2017-Feb-17 08:19N 46°44' W 002°21'11 6.3
2017-Feb-17 06:33N 46°53' W 002°12'3 2.6
2017-Feb-17 05:33N 46°54' W 002°08'0 0.0
2017-Feb-17 04:33N 46°54' W 002°08'0 0.0
2017-Feb-17 03:33N 46°54' W 002°08'0 0.0
2017-Feb-17 02:33N 46°54' W 002°08'0 0.0
2017-Feb-17 01:32N 46°54' W 002°08'0 0.0
2017-Feb-17 00:33N 46°54' W 002°08'0 0.0
2017-Feb-16 23:33N 46°54' W 002°08'0 0.0
2017-Feb-16 22:33N 46°54' W 002°08'0 0.0
2017-Feb-16 21:33N 46°54' W 002°08'0 0.0
2017-Feb-16 20:33N 46°54' W 002°08'0 0.0
2017-Feb-16 19:33N 46°54' W 002°08'0 0.0
2017-Feb-16 18:33N 46°54' W 002°08'6 6.2
2017-Feb-16 17:33N 46°49' W 002°15'6 0.6
2017-Feb-16 07:15N 46°45' W 002°20'1013.8
2017-Feb-16 06:33N 46°53' W 002°12'3 2.6
2017-Feb-16 05:33N 46°54' W 002°08'0 0.0
2017-Feb-16 04:33N 46°54' W 002°08'0 0.0
2017-Feb-16 03:33N 46°54' W 002°08'0 0.0
2017-Feb-16 02:33N 46°54' W 002°08'0 0.0
2017-Feb-16 01:33N 46°54' W 002°08'0 0.0
2017-Feb-16 00:33N 46°54' W 002°08'0 0.0
2017-Feb-15 23:33N 46°54' W 002°08'0 0.0
2017-Feb-15 22:33N 46°54' W 002°08'0 0.0
2017-Feb-15 21:33N 46°54' W 002°08'0 0.0
2017-Feb-15 20:33N 46°54' W 002°08'0 0.0
2017-Feb-15 19:33N 46°54' W 002°08'0 0.0
2017-Feb-15 18:33N 46°54' W 002°08'0 0.0
2017-Feb-15 17:33N 46°54' W 002°08'6 6.5
2017-Feb-15 16:33N 46°49' W 002°15'4 0.4
2017-Feb-15 06:33N 46°53' W 002°12'3 2.6
2017-Feb-15 05:33N 46°54' W 002°08'  

Dump ship's entire track history